Aviation Digital Data Service (ADDS)

Output produced by METARs form (1036 UTC 17 February 2019)
found at http://aviationweather.gov/metar/data/
 
KBPT 170906Z 1709/1806 17009KT P6SM OVC005 
     FM171100 VRB06KT 4SM BR OVC005 
     TEMPO 1711/1714 1SM BR OVC003 
     FM171500 33007KT P6SM OVC007 
     FM172000 34009KT P6SM BKN015 
     FM180100 36008KT P6SM SKC